Shanghai Dawn — 3FMN2 — position and weather

sailwx.info

Track history (hours):
 
Tides and Currents Weather Stations Pressure Air Temp Water Temp Dewpoint Dewpoint Depression Visibility Wind Speed Wind Dir Waves Ship Positions

Shanghai Dawn

Last reported at 2017-Nov-01 01:40 UTC. Time now 2017-Nov-22 18:32 UTC.
Position N 01°16' E 103°57'.
Warning: this ship's position is 21 days out of date.

Length 246 m; draft 10.5 m.

Type: Tanker. MMSI: 356075000.

Date/timePositionNaut miles runAvg speedWind from/ knotsBaromVisibWave heightAir tempDewpointWater temp
2017-Nov-01 01:40N 01°16' E 103°57'0 0.0
2017-Nov-01 01:18N 01°16' E 103°57'0 0.0
2017-Nov-01 00:58N 01°16' E 103°57'0 0.0
2017-Nov-01 00:28N 01°16' E 103°57'0 0.0
2017-Oct-31 23:55N 01°16' E 103°57'0 0.0
2017-Oct-31 23:28N 01°16' E 103°57'0 0.0
2017-Oct-31 22:48N 01°16' E 103°57'0 0.0
2017-Oct-31 22:31N 01°16' E 103°57'0 0.0
2017-Oct-31 21:57N 01°16' E 103°57'0 0.0
2017-Oct-31 21:27N 01°16' E 103°57'0 0.0
2017-Oct-31 20:58N 01°16' E 103°57'0 0.0
2017-Oct-31 20:10N 01°16' E 103°57'0 0.1
2017-Oct-31 19:57N 01°16' E 103°57'0 0.2
2017-Oct-31 19:28N 01°16' E 103°57'0 0.1
2017-Oct-31 18:36N 01°16' E 103°57'0 0.0
2017-Oct-31 18:28N 01°16' E 103°57'0 0.0
2017-Oct-31 17:28N 01°16' E 103°57'0 0.0
2017-Oct-31 16:40N 01°16' E 103°57'0 0.0
2017-Oct-31 16:25N 01°16' E 103°57'0 0.1
2017-Oct-31 15:58N 01°16' E 103°57'0 0.2
2017-Oct-31 14:52N 01°16' E 103°57'0 0.0
2017-Oct-31 14:28N 01°16' E 103°57'0 0.0
2017-Oct-31 13:52N 01°16' E 103°57'0 0.0
2017-Oct-31 13:15N 01°16' E 103°57'0 0.0
2017-Oct-31 12:57N 01°16' E 103°57'0 0.0
2017-Oct-31 12:31N 01°16' E 103°57'0 0.1
2017-Oct-31 11:52N 01°16' E 103°57'0 0.1
2017-Oct-31 11:07N 01°16' E 103°57'0 0.3
2017-Oct-31 10:55N 01°16' E 103°57'0 0.1
2017-Oct-31 10:21N 01°16' E 103°57'0 0.6
2017-Oct-31 10:00N 01°16' E 103°56'2 4.8
2017-Oct-31 09:30N 01°16' E 103°59'2 3.7
2017-Oct-31 09:00N 01°16' E 104°01'2 4.0
2017-Oct-31 08:30N 01°16' E 104°03'3 5.3
2017-Oct-31 07:51N 01°17' E 104°06'2 3.9
2017-Oct-31 07:24N 01°19' E 104°05'3 6.4
2017-Oct-31 06:57N 01°21' E 104°03'10 8.5
2017-Oct-31 05:47N 01°26' E 103°55'0 0.0
2017-Oct-30 17:09N 01°26' E 103°54'0 0.0
2017-Oct-30 16:12N 01°26' E 103°54'0 0.0
2017-Oct-30 15:54N 01°26' E 103°54'0 0.0
2017-Oct-30 01:27N 01°26' E 103°54'0 0.7
2017-Oct-30 01:00N 01°26' E 103°55'3 5.9
2017-Oct-30 00:29N 01°24' E 103°57'5 8.2
2017-Oct-29 23:52N 01°22' E 104°02'410.6
2017-Oct-29 23:29N 01°20' E 104°05'3 4.9
2017-Oct-29 22:58N 01°19' E 104°07'1 0.2
2017-Oct-29 19:42N 01°19' E 104°08'0 0.2
2017-Oct-29 19:24N 01°19' E 104°08'0 0.0
2017-Oct-29 16:15N 01°19' E 104°08'0 0.2
2017-Oct-29 16:00N 01°19' E 104°08'3 4.0
2017-Oct-29 15:16N 01°16' E 104°07'310.0
2017-Oct-29 14:55N 01°15' E 104°03'410.2
2017-Oct-29 14:30N 01°15' E 103°59'510.1
2017-Oct-29 14:00N 01°13' E 103°55'510.1
2017-Oct-29 13:30N 01°10' E 103°50'611.5
2017-Oct-29 13:01N 01°07' E 103°45'612.1
2017-Oct-29 12:30N 01°03' E 103°41'4 8.9
2017-Oct-29 12:00N 01°04' E 103°36'510.6
2017-Oct-29 11:30N 01°07' E 103°32'4 7.8
2017-Oct-29 10:59N 01°11' E 103°31'3 6.4
2017-Oct-29 10:30N 01°13' E 103°33'1 2.8
2017-Oct-29 10:00N 01°14' E 103°34'2 3.0
2017-Oct-29 09:30N 01°15' E 103°35'0 0.1
2017-Oct-29 08:47N 01°15' E 103°35'0 0.0
2017-Oct-29 08:29N 01°15' E 103°35'0 0.1
2017-Oct-29 07:53N 01°15' E 103°35'0 0.1
2017-Oct-29 07:29N 01°15' E 103°35'0 0.1
2017-Oct-29 06:59N 01°16' E 103°35'0 0.1
2017-Oct-29 06:26N 01°16' E 103°35'0 0.1
2017-Oct-29 05:56N 01°16' E 103°35'0 0.0
2017-Oct-29 05:26N 01°16' E 103°35'0 0.1
2017-Oct-29 04:56N 01°16' E 103°35'0 0.0
2017-Oct-29 04:26N 01°16' E 103°35'0 0.1
2017-Oct-29 03:50N 01°16' E 103°35'0 0.0
2017-Oct-28 18:56N 01°15' E 103°35'0 0.0
2017-Oct-28 18:23N 01°15' E 103°35'0 0.2
2017-Oct-28 17:59N 01°15' E 103°35'0 0.0
2017-Oct-28 17:29N 01°15' E 103°35'0 0.1
2017-Oct-28 16:50N 01°15' E 103°35'0 0.2
2017-Oct-28 16:26N 01°15' E 103°35'0 0.0
2017-Oct-28 15:59N 01°15' E 103°35'0 0.0
2017-Oct-28 15:29N 01°15' E 103°35'0 0.0
2017-Oct-28 14:50N 01°15' E 103°35'0 0.0
2017-Oct-28 14:29N 01°15' E 103°35'0 0.1
2017-Oct-28 13:59N 01°15' E 103°35'0 0.0
2017-Oct-28 13:29N 01°15' E 103°35'0 0.0
2017-Oct-28 12:59N 01°15' E 103°35'0 0.2
2017-Oct-28 12:29N 01°15' E 103°35'0 0.0
2017-Oct-28 11:59N 01°15' E 103°35'0 0.1
2017-Oct-28 11:29N 01°15' E 103°35'0 0.0
2017-Oct-28 10:56N 01°15' E 103°35'0 0.0
2017-Oct-28 10:29N 01°15' E 103°35'0 0.0
2017-Oct-28 09:59N 01°15' E 103°35'0 0.0
2017-Oct-28 09:29N 01°15' E 103°35'0 0.1
2017-Oct-28 08:59N 01°15' E 103°35'0 0.0
2017-Oct-28 08:29N 01°15' E 103°35'0 0.0
2017-Oct-28 07:47N 01°15' E 103°35'0 0.0
2017-Oct-28 07:26N 01°15' E 103°35'0 0.0
2017-Oct-28 06:59N 01°15' E 103°35'0 0.0
2017-Oct-28 06:29N 01°15' E 103°35'0 0.1
2017-Oct-28 05:56N 01°15' E 103°35'0 0.0
2017-Oct-28 05:29N 01°15' E 103°35'0 0.0
2017-Oct-28 04:59N 01°15' E 103°35'0 0.1
2017-Oct-28 04:29N 01°15' E 103°35'0 0.0
2017-Oct-28 03:56N 01°16' E 103°35'0 0.1
2017-Oct-28 03:29N 01°16' E 103°35'0 0.3
2017-Oct-28 02:59N 01°16' E 103°35'0 0.2
2017-Oct-28 02:23N 01°16' E 103°35'0 0.0
2017-Oct-28 01:59N 01°16' E 103°35'0 0.1
2017-Oct-28 01:29N 01°16' E 103°35'0 0.0
2017-Oct-28 00:59N 01°16' E 103°35'0 0.2
2017-Oct-28 00:30N 01°15' E 103°35'0 0.3
2017-Oct-28 00:00N 01°15' E 103°35'0 1.0
2017-Oct-27 23:30N 01°16' E 103°36'1 1.6
2017-Oct-27 22:57N 01°16' E 103°36'0 0.2
2017-Oct-27 22:30N 01°16' E 103°36'0 0.0
2017-Oct-27 21:57N 01°16' E 103°36'0 0.0
2017-Oct-27 21:30N 01°16' E 103°36'0 0.1
2017-Oct-27 20:57N 01°16' E 103°36'0 0.0
2017-Oct-27 20:30N 01°16' E 103°36'0 0.0
2017-Oct-27 19:57N 01°16' E 103°36'0 0.0
2017-Oct-27 19:30N 01°16' E 103°36'0 0.1
2017-Oct-27 18:57N 01°16' E 103°36'0 0.0
2017-Oct-27 18:30N 01°16' E 103°36'0 0.0
2017-Oct-27 17:57N 01°16' E 103°36'0 0.1
2017-Oct-27 17:30N 01°16' E 103°36'0 0.0
2017-Oct-27 16:57N 01°16' E 103°36'0 0.1
2017-Oct-27 16:30N 01°16' E 103°36'0 0.0
2017-Oct-27 15:48N 01°16' E 103°36'0 0.0
2017-Oct-27 15:30N 01°16' E 103°36'0 0.0
2017-Oct-27 14:57N 01°16' E 103°36'0 0.0
2017-Oct-27 14:30N 01°16' E 103°36'0 0.0
2017-Oct-27 13:30N 01°16' E 103°36'0 0.4
2017-Oct-27 12:59N 01°17' E 103°36'2 3.8
2017-Oct-27 12:30N 01°15' E 103°35'2 4.2
2017-Oct-27 11:59N 01°13' E 103°33'1 2.1
2017-Oct-27 11:31N 01°12' E 103°34'2 4.5
2017-Oct-27 10:59N 01°12' E 103°36'3 6.2
2017-Oct-27 10:30N 01°11' E 103°39'3 6.8
2017-Oct-27 10:01N 01°10' E 103°42'4 8.6
2017-Oct-27 09:30N 01°10' E 103°47'5 9.3
2017-Oct-27 09:00N 01°12' E 103°51'5 9.1
2017-Oct-27 08:30N 01°14' E 103°55'5 9.6
2017-Oct-27 08:00N 01°15' E 103°59'510.2
2017-Oct-27 07:28N 01°16' E 104°05'4 0.1
2017-Oct-25 22:39N 01°15' E 104°08'210.9
2017-Oct-25 22:28N 01°15' E 104°06'4 9.7
2017-Oct-25 22:00N 01°14' E 104°02'510.7
2017-Oct-25 21:30N 01°13' E 103°56'510.7
2017-Oct-25 21:00N 01°11' E 103°52'510.3
2017-Oct-25 20:31N 01°09' E 103°47'510.4
2017-Oct-25 20:00N 01°05' E 103°43'5 9.9
2017-Oct-25 19:30N 01°02' E 103°39'611.0
2017-Oct-25 18:59N 01°06' E 103°35'4 8.9
2017-Oct-25 18:30N 01°10' E 103°34'510.0
2017-Oct-25 18:01N 01°12' E 103°39'2 3.8
2017-Oct-25 17:30N 01°14' E 103°40'2 3.0
2017-Oct-25 17:01N 01°15' E 103°39'0 0.0
2017-Oct-25 15:17N 01°15' E 103°39'0 0.0
2017-Oct-25 14:50N 01°15' E 103°39'0 0.0
2017-Oct-25 14:26N 01°15' E 103°39'0 0.0
2017-Oct-25 13:47N 01°15' E 103°39'0 0.0
2017-Oct-25 13:26N 01°15' E 103°39'0 0.0
2017-Oct-25 12:59N 01°15' E 103°39'0 0.0
2017-Oct-25 12:14N 01°15' E 103°39'0 0.0
2017-Oct-25 11:53N 01°15' E 103°39'0 0.0
2017-Oct-25 11:20N 01°15' E 103°39'0 0.0
2017-Oct-25 10:53N 01°15' E 103°39'0 0.0
2017-Oct-25 10:14N 01°15' E 103°39'0 0.0
2017-Oct-25 09:59N 01°15' E 103°39'0 0.0
2017-Oct-25 09:17N 01°15' E 103°39'0 0.0
2017-Oct-25 08:02N 01°15' E 103°39'0 0.0
2017-Oct-25 07:59N 01°15' E 103°39'0 0.0
2017-Oct-25 07:29N 01°15' E 103°39'0 0.0
2017-Oct-25 06:59N 01°15' E 103°39'0 0.0
2017-Oct-25 06:29N 01°15' E 103°39'0 0.0
2017-Oct-25 05:44N 01°15' E 103°39'0 0.0
2017-Oct-25 05:26N 01°15' E 103°39'0 0.0
2017-Oct-25 04:59N 01°15' E 103°39'0 0.0
2017-Oct-25 04:20N 01°15' E 103°39'0 0.0
2017-Oct-25 03:47N 01°15' E 103°39'0 0.0
2017-Oct-25 02:44N 01°15' E 103°39'0 0.0
2017-Oct-25 02:14N 01°15' E 103°39'0 0.0
2017-Oct-25 01:59N 01°15' E 103°39'0 0.0
2017-Oct-25 01:20N 01°15' E 103°39'0 0.0
2017-Oct-25 00:56N 01°15' E 103°39'0 0.0
2017-Oct-25 00:20N 01°15' E 103°39'0 0.0
2017-Oct-24 23:59N 01°15' E 103°39'0 0.0
2017-Oct-24 23:23N 01°15' E 103°39'0 0.0
2017-Oct-24 22:59N 01°15' E 103°39'0 0.0
2017-Oct-24 22:29N 01°15' E 103°39'0 0.0
2017-Oct-24 21:53N 01°15' E 103°39'0 0.0
2017-Oct-24 21:29N 01°15' E 103°39'0 0.0
2017-Oct-24 20:53N 01°15' E 103°39'0 0.0
2017-Oct-24 20:23N 01°15' E 103°39'0 0.0
2017-Oct-24 19:56N 01°15' E 103°39'0 0.0
2017-Oct-24 19:26N 01°15' E 103°39'0 0.0
2017-Oct-24 18:53N 01°15' E 103°39'0 0.0
2017-Oct-24 18:26N 01°15' E 103°39'0 0.0
2017-Oct-24 18:00N 01°15' E 103°39'1 2.2
2017-Oct-24 17:30N 01°14' E 103°40'3 6.1
2017-Oct-24 17:00N 01°11' E 103°40'5 9.9
2017-Oct-24 16:30N 01°09' E 103°45'611.4
2017-Oct-24 16:00N 01°12' E 103°50'510.6
2017-Oct-24 15:30N 01°14' E 103°54'1 1.8
2017-Oct-24 14:58N 01°15' E 103°55'0 0.0
2017-Oct-24 14:25N 01°15' E 103°55'0 0.0
2017-Oct-24 13:55N 01°15' E 103°55'0 0.0
2017-Oct-24 13:25N 01°15' E 103°55'0 0.0
2017-Oct-24 12:52N 01°15' E 103°55'0 0.0
2017-Oct-24 12:22N 01°15' E 103°55'0 0.1
2017-Oct-24 11:55N 01°15' E 103°55'0 0.0
2017-Oct-24 11:25N 01°15' E 103°55'0 0.0
2017-Oct-24 10:58N 01°15' E 103°55'0 0.0
2017-Oct-24 10:28N 01°15' E 103°55'0 0.0
2017-Oct-24 09:55N 01°15' E 103°55'0 0.0
2017-Oct-24 09:28N 01°15' E 103°55'0 0.1
2017-Oct-24 08:55N 01°15' E 103°55'0 0.0
2017-Oct-24 08:19N 01°15' E 103°55'0 0.2
2017-Oct-24 07:55N 01°15' E 103°55'0 0.0
2017-Oct-24 07:28N 01°15' E 103°55'0 0.0
2017-Oct-24 06:58N 01°15' E 103°55'0 0.0
2017-Oct-24 06:25N 01°15' E 103°55'0 0.1
2017-Oct-24 05:49N 01°15' E 103°55'0 0.5
2017-Oct-24 05:25N 01°15' E 103°55'0 0.0
2017-Oct-24 04:43N 01°15' E 103°55'0 0.2
2017-Oct-24 04:25N 01°15' E 103°55'0 0.1
2017-Oct-24 03:58N 01°15' E 103°55'0 0.0
2017-Oct-24 03:22N 01°15' E 103°55'0 0.0
2017-Oct-24 02:58N 01°15' E 103°55'0 0.0
2017-Oct-24 02:28N 01°15' E 103°55'0 0.0
2017-Oct-24 01:52N 01°15' E 103°55'0 0.0
2017-Oct-24 01:19N 01°15' E 103°55'0 0.0
2017-Oct-24 00:58N 01°15' E 103°55'0 0.0
2017-Oct-24 00:25N 01°15' E 103°55'0 0.0
2017-Oct-23 23:58N 01°15' E 103°55'0 0.1
2017-Oct-23 23:25N 01°15' E 103°55'0 0.0
2017-Oct-23 22:58N 01°15' E 103°55'0 0.0
2017-Oct-23 22:28N 01°15' E 103°55'0 0.0
2017-Oct-23 21:58N 01°15' E 103°55'0 0.0
2017-Oct-23 21:28N 01°15' E 103°55'0 0.0
2017-Oct-23 20:58N 01°15' E 103°55'0 0.0
2017-Oct-23 20:13N 01°15' E 103°55'0 0.2
2017-Oct-23 19:58N 01°15' E 103°55'0 0.1
2017-Oct-23 19:28N 01°15' E 103°55'0 0.2
2017-Oct-23 18:58N 01°15' E 103°55'0 0.0
2017-Oct-23 18:28N 01°15' E 103°55'0 0.1
2017-Oct-23 17:58N 01°15' E 103°55'0 0.0
2017-Oct-23 17:28N 01°15' E 103°55'0 0.1
2017-Oct-23 16:49N 01°15' E 103°55'0 0.0
2017-Oct-23 16:25N 01°15' E 103°55'0 0.0
2017-Oct-23 15:55N 01°15' E 103°55'0 0.2
2017-Oct-23 15:25N 01°15' E 103°55'0 0.1
2017-Oct-23 14:49N 01°15' E 103°55'0 0.2
2017-Oct-23 14:25N 01°15' E 103°55'0 0.0
2017-Oct-23 13:49N 01°15' E 103°55'0 0.0
2017-Oct-23 13:16N 01°15' E 103°55'0 0.0
2017-Oct-23 12:58N 01°15' E 103°55'0 0.0
2017-Oct-23 12:28N 01°15' E 103°55'0 0.0
2017-Oct-23 11:58N 01°15' E 103°55'0 0.0
2017-Oct-23 11:28N 01°15' E 103°55'0 0.1
2017-Oct-23 10:55N 01°15' E 103°55'0 0.0
2017-Oct-23 10:22N 01°15' E 103°55'0 0.0
2017-Oct-23 09:55N 01°15' E 103°55'0 0.0
2017-Oct-23 09:25N 01°15' E 103°55'0 0.0
2017-Oct-23 08:55N 01°15' E 103°55'0 0.0
2017-Oct-23 08:19N 01°15' E 103°55'0 0.0
2017-Oct-23 07:49N 01°15' E 103°55'0 0.0
2017-Oct-23 07:25N 01°15' E 103°55'0 0.0
2017-Oct-23 06:55N 01°15' E 103°55'0 0.0
2017-Oct-23 06:19N 01°15' E 103°55'0 0.0
2017-Oct-23 05:52N 01°15' E 103°55'0 0.0
2017-Oct-23 05:28N 01°15' E 103°55'0 0.0
2017-Oct-23 04:43N 01°15' E 103°55'0 0.1
2017-Oct-23 04:28N 01°15' E 103°55'0 0.2
2017-Oct-23 03:37N 01°15' E 103°55'0 0.3
2017-Oct-23 03:25N 01°15' E 103°55'0 0.2
2017-Oct-23 02:52N 01°15' E 103°55'0 0.2
2017-Oct-23 02:28N 01°15' E 103°55'0 0.1
2017-Oct-23 01:49N 01°15' E 103°55'0 0.0
2017-Oct-23 01:25N 01°15' E 103°55'0 0.0
2017-Oct-23 00:58N 01°15' E 103°55'0 0.0
2017-Oct-23 00:25N 01°15' E 103°55'0 0.1
2017-Oct-22 23:46N 01°15' E 103°55'0 0.1
2017-Oct-22 23:19N 01°15' E 103°55'0 0.0
2017-Oct-22 22:55N 01°15' E 103°55'0 0.1
2017-Oct-22 22:19N 01°15' E 103°55'0 0.0
2017-Oct-22 21:55N 01°15' E 103°55'0 0.0
2017-Oct-22 21:28N 01°15' E 103°55'0 0.0
2017-Oct-22 20:55N 01°15' E 103°55'0 0.1
2017-Oct-22 20:25N 01°15' E 103°55'0 0.1
2017-Oct-22 19:55N 01°15' E 103°55'0 0.0
2017-Oct-22 19:25N 01°15' E 103°55'0 0.1
2017-Oct-22 18:58N 01°15' E 103°55'0 0.0
2017-Oct-22 18:25N 01°15' E 103°55'0 0.0
2017-Oct-22 17:55N 01°15' E 103°55'0 0.0
2017-Oct-22 17:19N 01°15' E 103°55'0 0.2
2017-Oct-22 16:49N 01°15' E 103°55'0 0.2
2017-Oct-22 16:25N 01°15' E 103°55'0 0.2
2017-Oct-22 15:58N 01°15' E 103°55'0 0.1
2017-Oct-22 15:13N 01°15' E 103°55'0 0.0
2017-Oct-22 14:49N 01°15' E 103°55'0 0.1
2017-Oct-22 13:43N 01°15' E 103°55'0 0.0
2017-Oct-22 13:25N 01°15' E 103°55'0 0.0
2017-Oct-22 12:55N 01°15' E 103°55'0 0.0
2017-Oct-22 12:22N 01°15' E 103°55'0 0.0
2017-Oct-22 11:55N 01°15' E 103°55'0 0.0
2017-Oct-22 11:01N 01°15' E 103°55'0 0.0
2017-Oct-22 10:37N 01°15' E 103°55'0 0.1
2017-Oct-22 10:07N 01°15' E 103°55'0 0.0
2017-Oct-22 09:58N 01°15' E 103°55'0 0.1
2017-Oct-22 09:25N 01°15' E 103°55'0 0.1
2017-Oct-22 08:55N 01°15' E 103°55'0 0.0
2017-Oct-22 08:25N 01°15' E 103°55'0 0.0
2017-Oct-22 07:52N 01°15' E 103°55'0 0.0
2017-Oct-22 07:22N 01°15' E 103°55'0 0.0
2017-Oct-22 06:55N 01°15' E 103°55'0 0.0
2017-Oct-22 06:22N 01°15' E 103°55'0 0.0
2017-Oct-22 05:55N 01°15' E 103°55'0 0.0
2017-Oct-22 05:28N 01°15' E 103°55'0 0.1
2017-Oct-22 04:55N 01°15' E 103°55'0 0.0
2017-Oct-22 04:19N 01°15' E 103°55'0 0.0
2017-Oct-22 03:52N 01°15' E 103°55'0 0.0
2017-Oct-22 03:25N 01°15' E 103°55'0 0.2
2017-Oct-22 02:55N 01°15' E 103°55'0 0.0
2017-Oct-22 02:28N 01°15' E 103°55'0 0.1
2017-Oct-22 01:49N 01°15' E 103°55'  
Track history (hours):
 
Tides and Currents Weather Stations Pressure Air Temp Water Temp Dewpoint Dewpoint Depression Visibility Wind Speed Wind Dir Waves Ship Positions

Shanghai Dawn

Last reported at 2017-Nov-01 01:40 UTC. Time now 2017-Nov-22 18:32 UTC.
Position N 01°16' E 103°57'.
Warning: this ship's position is 21 days out of date.

Length 246 m; draft 10.5 m.

Type: Tanker. MMSI: 356075000.

Date/timePositionNaut miles runAvg speedWind from/ knotsBaromVisibWave heightAir tempDewpointWater temp
2017-Nov-01 01:40N 01°16' E 103°57'0 0.0
2017-Nov-01 01:18N 01°16' E 103°57'0 0.0
2017-Nov-01 00:58N 01°16' E 103°57'0 0.0
2017-Nov-01 00:28N 01°16' E 103°57'0 0.0
2017-Oct-31 23:55N 01°16' E 103°57'0 0.0
2017-Oct-31 23:28N 01°16' E 103°57'0 0.0
2017-Oct-31 22:48N 01°16' E 103°57'0 0.0
2017-Oct-31 22:31N 01°16' E 103°57'0 0.0
2017-Oct-31 21:57N 01°16' E 103°57'0 0.0
2017-Oct-31 21:27N 01°16' E 103°57'0 0.0
2017-Oct-31 20:58N 01°16' E 103°57'0 0.0
2017-Oct-31 20:10N 01°16' E 103°57'0 0.1
2017-Oct-31 19:57N 01°16' E 103°57'0 0.2
2017-Oct-31 19:28N 01°16' E 103°57'0 0.1
2017-Oct-31 18:36N 01°16' E 103°57'0 0.0
2017-Oct-31 18:28N 01°16' E 103°57'0 0.0
2017-Oct-31 17:28N 01°16' E 103°57'0 0.0
2017-Oct-31 16:40N 01°16' E 103°57'0 0.0
2017-Oct-31 16:25N 01°16' E 103°57'0 0.1
2017-Oct-31 15:58N 01°16' E 103°57'0 0.2
2017-Oct-31 14:52N 01°16' E 103°57'0 0.0
2017-Oct-31 14:28N 01°16' E 103°57'0 0.0
2017-Oct-31 13:52N 01°16' E 103°57'0 0.0
2017-Oct-31 13:15N 01°16' E 103°57'0 0.0
2017-Oct-31 12:57N 01°16' E 103°57'0 0.0
2017-Oct-31 12:31N 01°16' E 103°57'0 0.1
2017-Oct-31 11:52N 01°16' E 103°57'0 0.1
2017-Oct-31 11:07N 01°16' E 103°57'0 0.3
2017-Oct-31 10:55N 01°16' E 103°57'0 0.1
2017-Oct-31 10:21N 01°16' E 103°57'0 0.6
2017-Oct-31 10:00N 01°16' E 103°56'2 4.8
2017-Oct-31 09:30N 01°16' E 103°59'2 3.7
2017-Oct-31 09:00N 01°16' E 104°01'2 4.0
2017-Oct-31 08:30N 01°16' E 104°03'3 5.3
2017-Oct-31 07:51N 01°17' E 104°06'2 3.9
2017-Oct-31 07:24N 01°19' E 104°05'3 6.4
2017-Oct-31 06:57N 01°21' E 104°03'10 8.5
2017-Oct-31 05:47N 01°26' E 103°55'0 0.0
2017-Oct-30 17:09N 01°26' E 103°54'0 0.0
2017-Oct-30 16:12N 01°26' E 103°54'0 0.0
2017-Oct-30 15:54N 01°26' E 103°54'0 0.0
2017-Oct-30 01:27N 01°26' E 103°54'0 0.7
2017-Oct-30 01:00N 01°26' E 103°55'3 5.9
2017-Oct-30 00:29N 01°24' E 103°57'5 8.2
2017-Oct-29 23:52N 01°22' E 104°02'410.6
2017-Oct-29 23:29N 01°20' E 104°05'3 4.9
2017-Oct-29 22:58N 01°19' E 104°07'1 0.2
2017-Oct-29 19:42N 01°19' E 104°08'0 0.2
2017-Oct-29 19:24N 01°19' E 104°08'0 0.0
2017-Oct-29 16:15N 01°19' E 104°08'0 0.2
2017-Oct-29 16:00N 01°19' E 104°08'3 4.0
2017-Oct-29 15:16N 01°16' E 104°07'310.0
2017-Oct-29 14:55N 01°15' E 104°03'410.2
2017-Oct-29 14:30N 01°15' E 103°59'510.1
2017-Oct-29 14:00N 01°13' E 103°55'510.1
2017-Oct-29 13:30N 01°10' E 103°50'611.5
2017-Oct-29 13:01N 01°07' E 103°45'612.1
2017-Oct-29 12:30N 01°03' E 103°41'4 8.9
2017-Oct-29 12:00N 01°04' E 103°36'510.6
2017-Oct-29 11:30N 01°07' E 103°32'4 7.8
2017-Oct-29 10:59N 01°11' E 103°31'3 6.4
2017-Oct-29 10:30N 01°13' E 103°33'1 2.8
2017-Oct-29 10:00N 01°14' E 103°34'2 3.0
2017-Oct-29 09:30N 01°15' E 103°35'0 0.1
2017-Oct-29 08:47N 01°15' E 103°35'0 0.0
2017-Oct-29 08:29N 01°15' E 103°35'0 0.1
2017-Oct-29 07:53N 01°15' E 103°35'0 0.1
2017-Oct-29 07:29N 01°15' E 103°35'0 0.1
2017-Oct-29 06:59N 01°16' E 103°35'0 0.1
2017-Oct-29 06:26N 01°16' E 103°35'0 0.1
2017-Oct-29 05:56N 01°16' E 103°35'0 0.0
2017-Oct-29 05:26N 01°16' E 103°35'0 0.1
2017-Oct-29 04:56N 01°16' E 103°35'0 0.0
2017-Oct-29 04:26N 01°16' E 103°35'0 0.1
2017-Oct-29 03:50N 01°16' E 103°35'0 0.0
2017-Oct-28 18:56N 01°15' E 103°35'0 0.0
2017-Oct-28 18:23N 01°15' E 103°35'0 0.2
2017-Oct-28 17:59N 01°15' E 103°35'0 0.0
2017-Oct-28 17:29N 01°15' E 103°35'0 0.1
2017-Oct-28 16:50N 01°15' E 103°35'0 0.2
2017-Oct-28 16:26N 01°15' E 103°35'0 0.0
2017-Oct-28 15:59N 01°15' E 103°35'0 0.0
2017-Oct-28 15:29N 01°15' E 103°35'0 0.0
2017-Oct-28 14:50N 01°15' E 103°35'0 0.0
2017-Oct-28 14:29N 01°15' E 103°35'0 0.1
2017-Oct-28 13:59N 01°15' E 103°35'0 0.0
2017-Oct-28 13:29N 01°15' E 103°35'0 0.0
2017-Oct-28 12:59N 01°15' E 103°35'0 0.2
2017-Oct-28 12:29N 01°15' E 103°35'0 0.0
2017-Oct-28 11:59N 01°15' E 103°35'0 0.1
2017-Oct-28 11:29N 01°15' E 103°35'0 0.0
2017-Oct-28 10:56N 01°15' E 103°35'0 0.0
2017-Oct-28 10:29N 01°15' E 103°35'0 0.0
2017-Oct-28 09:59N 01°15' E 103°35'0 0.0
2017-Oct-28 09:29N 01°15' E 103°35'0 0.1
2017-Oct-28 08:59N 01°15' E 103°35'0 0.0
2017-Oct-28 08:29N 01°15' E 103°35'0 0.0
2017-Oct-28 07:47N 01°15' E 103°35'0 0.0
2017-Oct-28 07:26N 01°15' E 103°35'0 0.0
2017-Oct-28 06:59N 01°15' E 103°35'0 0.0
2017-Oct-28 06:29N 01°15' E 103°35'0 0.1
2017-Oct-28 05:56N 01°15' E 103°35'0 0.0
2017-Oct-28 05:29N 01°15' E 103°35'0 0.0
2017-Oct-28 04:59N 01°15' E 103°35'0 0.1
2017-Oct-28 04:29N 01°15' E 103°35'0 0.0
2017-Oct-28 03:56N 01°16' E 103°35'0 0.1
2017-Oct-28 03:29N 01°16' E 103°35'0 0.3
2017-Oct-28 02:59N 01°16' E 103°35'0 0.2
2017-Oct-28 02:23N 01°16' E 103°35'0 0.0
2017-Oct-28 01:59N 01°16' E 103°35'0 0.1
2017-Oct-28 01:29N 01°16' E 103°35'0 0.0
2017-Oct-28 00:59N 01°16' E 103°35'0 0.2
2017-Oct-28 00:30N 01°15' E 103°35'0 0.3
2017-Oct-28 00:00N 01°15' E 103°35'0 1.0
2017-Oct-27 23:30N 01°16' E 103°36'1 1.6
2017-Oct-27 22:57N 01°16' E 103°36'0 0.2
2017-Oct-27 22:30N 01°16' E 103°36'0 0.0
2017-Oct-27 21:57N 01°16' E 103°36'0 0.0
2017-Oct-27 21:30N 01°16' E 103°36'0 0.1
2017-Oct-27 20:57N 01°16' E 103°36'0 0.0
2017-Oct-27 20:30N 01°16' E 103°36'0 0.0
2017-Oct-27 19:57N 01°16' E 103°36'0 0.0
2017-Oct-27 19:30N 01°16' E 103°36'0 0.1
2017-Oct-27 18:57N 01°16' E 103°36'0 0.0
2017-Oct-27 18:30N 01°16' E 103°36'0 0.0
2017-Oct-27 17:57N 01°16' E 103°36'0 0.1
2017-Oct-27 17:30N 01°16' E 103°36'0 0.0
2017-Oct-27 16:57N 01°16' E 103°36'0 0.1
2017-Oct-27 16:30N 01°16' E 103°36'0 0.0
2017-Oct-27 15:48N 01°16' E 103°36'0 0.0
2017-Oct-27 15:30N 01°16' E 103°36'0 0.0
2017-Oct-27 14:57N 01°16' E 103°36'0 0.0
2017-Oct-27 14:30N 01°16' E 103°36'0 0.0
2017-Oct-27 13:30N 01°16' E 103°36'0 0.4
2017-Oct-27 12:59N 01°17' E 103°36'2 3.8
2017-Oct-27 12:30N 01°15' E 103°35'2 4.2
2017-Oct-27 11:59N 01°13' E 103°33'1 2.1
2017-Oct-27 11:31N 01°12' E 103°34'2 4.5
2017-Oct-27 10:59N 01°12' E 103°36'3 6.2
2017-Oct-27 10:30N 01°11' E 103°39'3 6.8
2017-Oct-27 10:01N 01°10' E 103°42'4 8.6
2017-Oct-27 09:30N 01°10' E 103°47'5 9.3
2017-Oct-27 09:00N 01°12' E 103°51'5 9.1
2017-Oct-27 08:30N 01°14' E 103°55'5 9.6
2017-Oct-27 08:00N 01°15' E 103°59'510.2
2017-Oct-27 07:28N 01°16' E 104°05'4 0.1
2017-Oct-25 22:39N 01°15' E 104°08'210.9
2017-Oct-25 22:28N 01°15' E 104°06'4 9.7
2017-Oct-25 22:00N 01°14' E 104°02'510.7
2017-Oct-25 21:30N 01°13' E 103°56'510.7
2017-Oct-25 21:00N 01°11' E 103°52'510.3
2017-Oct-25 20:31N 01°09' E 103°47'510.4
2017-Oct-25 20:00N 01°05' E 103°43'5 9.9
2017-Oct-25 19:30N 01°02' E 103°39'611.0
2017-Oct-25 18:59N 01°06' E 103°35'4 8.9
2017-Oct-25 18:30N 01°10' E 103°34'510.0
2017-Oct-25 18:01N 01°12' E 103°39'2 3.8
2017-Oct-25 17:30N 01°14' E 103°40'2 3.0
2017-Oct-25 17:01N 01°15' E 103°39'0 0.0
2017-Oct-25 15:17N 01°15' E 103°39'0 0.0
2017-Oct-25 14:50N 01°15' E 103°39'0 0.0
2017-Oct-25 14:26N 01°15' E 103°39'0 0.0
2017-Oct-25 13:47N 01°15' E 103°39'0 0.0
2017-Oct-25 13:26N 01°15' E 103°39'0 0.0
2017-Oct-25 12:59N 01°15' E 103°39'0 0.0
2017-Oct-25 12:14N 01°15' E 103°39'0 0.0
2017-Oct-25 11:53N 01°15' E 103°39'0 0.0
2017-Oct-25 11:20N 01°15' E 103°39'0 0.0
2017-Oct-25 10:53N 01°15' E 103°39'0 0.0
2017-Oct-25 10:14N 01°15' E 103°39'0 0.0
2017-Oct-25 09:59N 01°15' E 103°39'0 0.0
2017-Oct-25 09:17N 01°15' E 103°39'0 0.0
2017-Oct-25 08:02N 01°15' E 103°39'0 0.0
2017-Oct-25 07:59N 01°15' E 103°39'0 0.0
2017-Oct-25 07:29N 01°15' E 103°39'0 0.0
2017-Oct-25 06:59N 01°15' E 103°39'0 0.0
2017-Oct-25 06:29N 01°15' E 103°39'0 0.0
2017-Oct-25 05:44N 01°15' E 103°39'0 0.0
2017-Oct-25 05:26N 01°15' E 103°39'0 0.0
2017-Oct-25 04:59N 01°15' E 103°39'0 0.0
2017-Oct-25 04:20N 01°15' E 103°39'0 0.0
2017-Oct-25 03:47N 01°15' E 103°39'0 0.0
2017-Oct-25 02:44N 01°15' E 103°39'0 0.0
2017-Oct-25 02:14N 01°15' E 103°39'0 0.0
2017-Oct-25 01:59N 01°15' E 103°39'0 0.0
2017-Oct-25 01:20N 01°15' E 103°39'0 0.0
2017-Oct-25 00:56N 01°15' E 103°39'0 0.0
2017-Oct-25 00:20N 01°15' E 103°39'0 0.0
2017-Oct-24 23:59N 01°15' E 103°39'0 0.0
2017-Oct-24 23:23N 01°15' E 103°39'0 0.0
2017-Oct-24 22:59N 01°15' E 103°39'0 0.0
2017-Oct-24 22:29N 01°15' E 103°39'0 0.0
2017-Oct-24 21:53N 01°15' E 103°39'0 0.0
2017-Oct-24 21:29N 01°15' E 103°39'0 0.0
2017-Oct-24 20:53N 01°15' E 103°39'0 0.0
2017-Oct-24 20:23N 01°15' E 103°39'0 0.0
2017-Oct-24 19:56N 01°15' E 103°39'0 0.0
2017-Oct-24 19:26N 01°15' E 103°39'0 0.0
2017-Oct-24 18:53N 01°15' E 103°39'0 0.0
2017-Oct-24 18:26N 01°15' E 103°39'0 0.0
2017-Oct-24 18:00N 01°15' E 103°39'1 2.2
2017-Oct-24 17:30N 01°14' E 103°40'3 6.1
2017-Oct-24 17:00N 01°11' E 103°40'5 9.9
2017-Oct-24 16:30N 01°09' E 103°45'611.4
2017-Oct-24 16:00N 01°12' E 103°50'510.6
2017-Oct-24 15:30N 01°14' E 103°54'1 1.8
2017-Oct-24 14:58N 01°15' E 103°55'0 0.0
2017-Oct-24 14:25N 01°15' E 103°55'0 0.0
2017-Oct-24 13:55N 01°15' E 103°55'0 0.0
2017-Oct-24 13:25N 01°15' E 103°55'0 0.0
2017-Oct-24 12:52N 01°15' E 103°55'0 0.0
2017-Oct-24 12:22N 01°15' E 103°55'0 0.1
2017-Oct-24 11:55N 01°15' E 103°55'0 0.0
2017-Oct-24 11:25N 01°15' E 103°55'0 0.0
2017-Oct-24 10:58N 01°15' E 103°55'0 0.0
2017-Oct-24 10:28N 01°15' E 103°55'0 0.0
2017-Oct-24 09:55N 01°15' E 103°55'0 0.0
2017-Oct-24 09:28N 01°15' E 103°55'0 0.1
2017-Oct-24 08:55N 01°15' E 103°55'0 0.0
2017-Oct-24 08:19N 01°15' E 103°55'0 0.2
2017-Oct-24 07:55N 01°15' E 103°55'0 0.0
2017-Oct-24 07:28N 01°15' E 103°55'0 0.0
2017-Oct-24 06:58N 01°15' E 103°55'0 0.0
2017-Oct-24 06:25N 01°15' E 103°55'0 0.1
2017-Oct-24 05:49N 01°15' E 103°55'0 0.5
2017-Oct-24 05:25N 01°15' E 103°55'0 0.0
2017-Oct-24 04:43N 01°15' E 103°55'0 0.2
2017-Oct-24 04:25N 01°15' E 103°55'0 0.1
2017-Oct-24 03:58N 01°15' E 103°55'0 0.0
2017-Oct-24 03:22N 01°15' E 103°55'0 0.0
2017-Oct-24 02:58N 01°15' E 103°55'0 0.0
2017-Oct-24 02:28N 01°15' E 103°55'0 0.0
2017-Oct-24 01:52N 01°15' E 103°55'0 0.0
2017-Oct-24 01:19N 01°15' E 103°55'0 0.0
2017-Oct-24 00:58N 01°15' E 103°55'0 0.0
2017-Oct-24 00:25N 01°15' E 103°55'0 0.0
2017-Oct-23 23:58N 01°15' E 103°55'0 0.1
2017-Oct-23 23:25N 01°15' E 103°55'0 0.0
2017-Oct-23 22:58N 01°15' E 103°55'0 0.0
2017-Oct-23 22:28N 01°15' E 103°55'0 0.0
2017-Oct-23 21:58N 01°15' E 103°55'0 0.0
2017-Oct-23 21:28N 01°15' E 103°55'0 0.0
2017-Oct-23 20:58N 01°15' E 103°55'0 0.0
2017-Oct-23 20:13N 01°15' E 103°55'0 0.2
2017-Oct-23 19:58N 01°15' E 103°55'0 0.1
2017-Oct-23 19:28N 01°15' E 103°55'0 0.2
2017-Oct-23 18:58N 01°15' E 103°55'0 0.0
2017-Oct-23 18:28N 01°15' E 103°55'0 0.1
2017-Oct-23 17:58N 01°15' E 103°55'0 0.0
2017-Oct-23 17:28N 01°15' E 103°55'0 0.1
2017-Oct-23 16:49N 01°15' E 103°55'0 0.0
2017-Oct-23 16:25N 01°15' E 103°55'0 0.0
2017-Oct-23 15:55N 01°15' E 103°55'0 0.2
2017-Oct-23 15:25N 01°15' E 103°55'0 0.1
2017-Oct-23 14:49N 01°15' E 103°55'0 0.2
2017-Oct-23 14:25N 01°15' E 103°55'0 0.0
2017-Oct-23 13:49N 01°15' E 103°55'0 0.0
2017-Oct-23 13:16N 01°15' E 103°55'0 0.0
2017-Oct-23 12:58N 01°15' E 103°55'0 0.0
2017-Oct-23 12:28N 01°15' E 103°55'0 0.0
2017-Oct-23 11:58N 01°15' E 103°55'0 0.0
2017-Oct-23 11:28N 01°15' E 103°55'0 0.1
2017-Oct-23 10:55N 01°15' E 103°55'0 0.0
2017-Oct-23 10:22N 01°15' E 103°55'0 0.0
2017-Oct-23 09:55N 01°15' E 103°55'0 0.0
2017-Oct-23 09:25N 01°15' E 103°55'0 0.0
2017-Oct-23 08:55N 01°15' E 103°55'0 0.0
2017-Oct-23 08:19N 01°15' E 103°55'0 0.0
2017-Oct-23 07:49N 01°15' E 103°55'0 0.0
2017-Oct-23 07:25N 01°15' E 103°55'0 0.0
2017-Oct-23 06:55N 01°15' E 103°55'0 0.0
2017-Oct-23 06:19N 01°15' E 103°55'0 0.0
2017-Oct-23 05:52N 01°15' E 103°55'0 0.0
2017-Oct-23 05:28N 01°15' E 103°55'0 0.0
2017-Oct-23 04:43N 01°15' E 103°55'0 0.1
2017-Oct-23 04:28N 01°15' E 103°55'0 0.2
2017-Oct-23 03:37N 01°15' E 103°55'0 0.3
2017-Oct-23 03:25N 01°15' E 103°55'0 0.2
2017-Oct-23 02:52N 01°15' E 103°55'0 0.2
2017-Oct-23 02:28N 01°15' E 103°55'0 0.1
2017-Oct-23 01:49N 01°15' E 103°55'0 0.0
2017-Oct-23 01:25N 01°15' E 103°55'0 0.0
2017-Oct-23 00:58N 01°15' E 103°55'0 0.0
2017-Oct-23 00:25N 01°15' E 103°55'0 0.1
2017-Oct-22 23:46N 01°15' E 103°55'0 0.1
2017-Oct-22 23:19N 01°15' E 103°55'0 0.0
2017-Oct-22 22:55N 01°15' E 103°55'0 0.1
2017-Oct-22 22:19N 01°15' E 103°55'0 0.0
2017-Oct-22 21:55N 01°15' E 103°55'0 0.0
2017-Oct-22 21:28N 01°15' E 103°55'0 0.0
2017-Oct-22 20:55N 01°15' E 103°55'0 0.1
2017-Oct-22 20:25N 01°15' E 103°55'0 0.1
2017-Oct-22 19:55N 01°15' E 103°55'0 0.0
2017-Oct-22 19:25N 01°15' E 103°55'0 0.1
2017-Oct-22 18:58N 01°15' E 103°55'0 0.0
2017-Oct-22 18:25N 01°15' E 103°55'0 0.0
2017-Oct-22 17:55N 01°15' E 103°55'0 0.0
2017-Oct-22 17:19N 01°15' E 103°55'0 0.2
2017-Oct-22 16:49N 01°15' E 103°55'0 0.2
2017-Oct-22 16:25N 01°15' E 103°55'0 0.2
2017-Oct-22 15:58N 01°15' E 103°55'0 0.1
2017-Oct-22 15:13N 01°15' E 103°55'0 0.0
2017-Oct-22 14:49N 01°15' E 103°55'0 0.1
2017-Oct-22 13:43N 01°15' E 103°55'0 0.0
2017-Oct-22 13:25N 01°15' E 103°55'0 0.0
2017-Oct-22 12:55N 01°15' E 103°55'0 0.0
2017-Oct-22 12:22N 01°15' E 103°55'0 0.0
2017-Oct-22 11:55N 01°15' E 103°55'0 0.0
2017-Oct-22 11:01N 01°15' E 103°55'0 0.0
2017-Oct-22 10:37N 01°15' E 103°55'0 0.1
2017-Oct-22 10:07N 01°15' E 103°55'0 0.0
2017-Oct-22 09:58N 01°15' E 103°55'0 0.1
2017-Oct-22 09:25N 01°15' E 103°55'0 0.1
2017-Oct-22 08:55N 01°15' E 103°55'0 0.0
2017-Oct-22 08:25N 01°15' E 103°55'0 0.0
2017-Oct-22 07:52N 01°15' E 103°55'0 0.0
2017-Oct-22 07:22N 01°15' E 103°55'0 0.0
2017-Oct-22 06:55N 01°15' E 103°55'0 0.0
2017-Oct-22 06:22N 01°15' E 103°55'0 0.0
2017-Oct-22 05:55N 01°15' E 103°55'0 0.0
2017-Oct-22 05:28N 01°15' E 103°55'0 0.1
2017-Oct-22 04:55N 01°15' E 103°55'0 0.0
2017-Oct-22 04:19N 01°15' E 103°55'0 0.0
2017-Oct-22 03:52N 01°15' E 103°55'0 0.0
2017-Oct-22 03:25N 01°15' E 103°55'0 0.2
2017-Oct-22 02:55N 01°15' E 103°55'0 0.0
2017-Oct-22 02:28N 01°15' E 103°55'0 0.1
2017-Oct-22 01:49N 01°15' E 103°55'  

Dump ship's entire track history